Time;durP1;ratioP1;P1;durP2;ratioP2;P2;SDS_P1;SDS_P2;PMS_P1;PMS_P2;Temp;Humidity;BMP_temperature;BMP_pressure;BME280_temperature;BME280_humidity;BME280_pressure;Samples;Min_cycle;Max_cycle;Signal;HPM_P1;HPM_P2
2023/08/09 00:00:53;;;;;;;3.97;1.52;;;16.10;99.90;;;;;;5052137;28;20070;-72
2023/08/09 00:03:19;;;;;;;1.90;1.08;;;16.10;99.90;;;;;;5051239;28;20047;-72
2023/08/09 00:05:45;;;;;;;2.63;1.40;;;16.10;99.90;;;;;;5051845;28;20045;-72
2023/08/09 00:08:11;;;;;;;2.25;1.10;;;16.10;99.90;;;;;;5052103;28;20063;-72
2023/08/09 00:10:37;;;;;;;2.83;1.88;;;16.10;99.90;;;;;;5034181;28;20477;-72
2023/08/09 00:13:03;;;;;;;10.18;2.17;;;16.10;99.90;;;;;;5033591;28;20639;-72
2023/08/09 00:15:29;;;;;;;2.75;1.20;;;16.20;99.90;;;;;;5033752;28;20025;-71
2023/08/09 00:17:55;;;;;;;3.03;1.10;;;16.20;99.90;;;;;;5034075;28;20443;-71
2023/08/09 00:20:22;;;;;;;2.92;1.48;;;16.10;99.90;;;;;;5051868;28;20033;-72
2023/08/09 00:22:48;;;;;;;1.98;1.20;;;16.20;99.90;;;;;;5033469;28;20032;-71
2023/08/09 00:25:15;;;;;;;4.90;1.25;;;16.20;99.90;;;;;;5033534;28;20477;-71
2023/08/09 00:27:42;;;;;;;1.50;0.93;;;16.20;99.90;;;;;;5033922;28;20064;-70
2023/08/09 00:30:10;;;;;;;2.72;1.23;;;16.20;99.90;;;;;;5051473;28;20110;-71
2023/08/09 00:32:37;;;;;;;3.75;1.52;;;16.20;99.90;;;;;;5033302;28;20029;-71
2023/08/09 00:35:04;;;;;;;4.65;2.40;;;16.20;99.90;;;;;;5033796;28;20104;-72
2023/08/09 00:37:30;;;;;;;4.32;1.50;;;16.20;99.90;;;;;;5033319;28;20047;-72
2023/08/09 00:39:56;;;;;;;1.63;1.30;;;16.20;99.90;;;;;;5051544;28;20025;-73
2023/08/09 00:42:25;;;;;;;2.97;1.60;;;16.20;99.90;;;;;;5050830;28;20029;-72
2023/08/09 00:44:51;;;;;;;2.53;1.10;;;16.20;99.90;;;;;;5051313;28;20435;-73
2023/08/09 00:47:18;;;;;;;4.25;1.63;;;16.30;99.90;;;;;;5051132;28;20033;-72
2023/08/09 00:49:45;;;;;;;2.33;1.30;;;16.30;99.90;;;;;;5033455;28;20372;-71
2023/08/09 00:52:11;;;;;;;5.78;2.13;;;16.30;99.90;;;;;;5033295;28;20044;-71
2023/08/09 00:54:41;;;;;;;5.70;1.77;;;16.30;99.90;;;;;;5032850;28;20444;-72
2023/08/09 00:57:07;;;;;;;1.80;0.90;;;16.30;99.90;;;;;;5033201;28;20120;-71
2023/08/09 00:59:34;;;;;;;2.92;1.40;;;16.30;99.90;;;;;;5033459;28;20021;-71
2023/08/09 01:01:59;;;;;;;2.10;1.20;;;16.30;99.90;;;;;;5050747;28;20395;-71
2023/08/09 01:04:26;;;;;;;1.70;1.02;;;16.20;99.90;;;;;;5043466;28;20033;-71
2023/08/09 01:07:06;;;;;;;2.50;1.60;;;16.30;99.90;;;;;;5027660;28;20033;-70
2023/08/09 01:09:51;;;;;;;1.85;1.00;;;16.30;99.90;;;;;;5015312;28;20496;-71
2023/08/09 01:12:25;;;;;;;2.35;1.25;;;16.30;99.90;;;;;;5016264;28;20404;-71
2023/08/09 01:14:56;;;;;;;2.53;1.60;;;16.30;99.90;;;;;;5042127;28;20025;-71
2023/08/09 01:17:25;;;;;;;3.55;1.20;;;16.40;99.90;;;;;;4994002;28;20029;-71
2023/08/09 01:19:57;;;;;;;5.97;1.30;;;16.50;99.90;;;;;;4993993;28;20042;-71
2023/08/09 01:22:35;;;;;;;2.65;1.50;;;16.50;99.90;;;;;;5010481;28;20372;-72
2023/08/09 01:25:06;;;;;;;2.97;1.35;;;16.50;99.90;;;;;;5010040;28;20389;-73
2023/08/09 01:27:35;;;;;;;2.85;1.50;;;16.50;99.90;;;;;;5030659;28;20033;-72
2023/08/09 01:30:04;;;;;;;6.45;1.55;;;16.60;99.90;;;;;;5045967;28;20076;-72
2023/08/09 01:32:30;;;;;;;3.55;1.38;;;16.60;99.90;;;;;;5044662;28;20508;-72
2023/08/09 01:34:58;;;;;;;3.20;1.40;;;16.60;99.90;;;;;;5046119;28;20432;-72
2023/08/09 01:37:34;;;;;;;4.28;1.55;;;16.60;99.90;;;;;;5045690;28;20053;-72
2023/08/09 01:40:08;;;;;;;1.98;1.00;;;16.50;99.90;;;;;;5045403;28;20041;-72
2023/08/09 01:42:39;;;;;;;3.05;1.42;;;16.40;99.90;;;;;;5009113;28;20040;-72
2023/08/09 01:45:08;;;;;;;3.50;1.58;;;16.40;99.90;;;;;;4993673;28;20044;-71
2023/08/09 01:47:38;;;;;;;2.90;1.45;;;16.40;99.90;;;;;;5010810;28;20084;-71
2023/08/09 01:50:06;;;;;;;3.17;1.47;;;16.40;99.90;;;;;;4977342;28;20394;-71
2023/08/09 01:52:32;;;;;;;3.75;1.15;;;16.40;99.90;;;;;;4992598;28;20363;-72
2023/08/09 01:54:58;;;;;;;6.20;1.90;;;16.40;99.90;;;;;;4993266;28;20546;-72
2023/08/09 01:57:24;;;;;;;7.45;1.90;;;16.40;99.90;;;;;;5010681;28;20478;-71
2023/08/09 01:59:50;;;;;;;2.35;1.50;;;16.40;99.90;;;;;;5011258;28;20478;-71
2023/08/09 02:02:16;;;;;;;2.78;1.40;;;16.40;99.90;;;;;;4993213;28;20030;-71
2023/08/09 02:04:42;;;;;;;4.43;1.63;;;16.40;99.90;;;;;;5010648;28;20125;-72
2023/08/09 02:07:08;;;;;;;2.78;1.58;;;16.40;99.90;;;;;;5010770;28;20128;-71
2023/08/09 02:09:34;;;;;;;2.85;1.48;;;16.40;99.90;;;;;;4993403;28;20053;-71
2023/08/09 02:12:00;;;;;;;2.47;1.35;;;16.40;99.90;;;;;;4993170;28;20153;-72
2023/08/09 02:14:27;;;;;;;7.22;1.77;;;16.40;99.90;;;;;;4992351;28;20038;-72
2023/08/09 02:16:53;;;;;;;3.80;1.90;;;16.40;99.90;;;;;;5010573;28;20079;-71
2023/08/09 02:19:19;;;;;;;3.22;1.45;;;16.30;99.90;;;;;;5017745;28;20038;-71
2023/08/09 02:21:45;;;;;;;2.33;1.60;;;16.30;99.90;;;;;;5038697;28;20158;-71
2023/08/09 02:24:11;;;;;;;4.65;1.77;;;16.30;99.90;;;;;;5023488;28;20025;-72
2023/08/09 02:26:40;;;;;;;2.60;1.17;;;16.30;99.90;;;;;;5050362;28;20025;-71
2023/08/09 02:29:06;;;;;;;3.05;1.20;;;16.20;99.90;;;;;;5053799;28;20492;-72
2023/08/09 02:31:31;;;;;;;2.33;1.38;;;16.20;99.90;;;;;;5035910;28;20028;-72
2023/08/09 02:33:58;;;;;;;5.38;1.33;;;16.20;99.90;;;;;;5034984;28;20077;-71
2023/08/09 02:36:24;;;;;;;3.03;1.13;;;16.20;99.90;;;;;;5053430;28;20064;-71
2023/08/09 02:38:51;;;;;;;1.60;0.90;;;16.20;99.90;;;;;;5053948;28;20392;-72
2023/08/09 02:41:17;;;;;;;8.23;1.55;;;16.20;99.90;;;;;;5036089;28;20040;-71
2023/08/09 02:43:43;;;;;;;3.15;1.58;;;16.20;99.90;;;;;;5052588;28;20072;-71
2023/08/09 02:46:09;;;;;;;4.70;1.67;;;16.20;99.90;;;;;;5035651;28;20060;-71
2023/08/09 02:48:35;;;;;;;4.53;1.60;;;16.20;99.90;;;;;;5035526;28;20025;-72
2023/08/09 02:51:01;;;;;;;2.58;1.30;;;16.20;99.90;;;;;;5053719;28;20333;-72
2023/08/09 02:53:36;;;;;;;3.55;1.40;;;16.30;99.90;;;;;;5034919;28;20024;-70
2023/08/09 02:56:02;;;;;;;9.75;1.30;;;16.40;99.90;;;;;;5036059;28;20025;-71
2023/08/09 02:58:28;;;;;;;9.00;1.17;;;16.50;99.90;;;;;;5053230;28;20715;-71
2023/08/09 03:00:54;;;;;;;4.45;1.10;;;16.50;99.90;;;;;;5035458;28;20032;-71
2023/08/09 03:03:19;;;;;;;2.40;1.13;;;16.50;99.90;;;;;;5052361;28;20039;-73
2023/08/09 03:05:45;;;;;;;1.55;0.77;;;16.60;99.90;;;;;;5053103;28;20477;-71
2023/08/09 03:08:11;;;;;;;1.25;0.90;;;16.80;99.90;;;;;;5034872;28;20123;-71
2023/08/09 03:10:37;;;;;;;1.40;0.82;;;17.00;99.90;;;;;;5053117;28;20025;-71
2023/08/09 03:13:03;;;;;;;1.83;1.08;;;17.10;99.90;;;;;;5052369;28;20025;-71
2023/08/09 03:15:28;;;;;;;2.45;0.80;;;17.20;99.90;;;;;;5024421;28;20030;-72
2023/08/09 03:17:54;;;;;;;1.80;0.70;;;17.20;99.90;;;;;;5048241;28;20509;-72
2023/08/09 03:20:20;;;;;;;2.10;0.80;;;17.30;99.90;;;;;;5032798;28;20052;-72
2023/08/09 03:22:48;;;;;;;2.13;0.98;;;17.30;99.90;;;;;;5047499;28;20038;-71
2023/08/09 03:25:15;;;;;;;1.25;0.55;;;17.40;99.90;;;;;;5032849;28;20036;-72
2023/08/09 03:27:41;;;;;;;1.70;0.88;;;17.40;99.90;;;;;;5032622;28;20033;-71
2023/08/09 03:30:08;;;;;;;3.20;0.70;;;17.40;99.90;;;;;;5037704;28;20520;-71
2023/08/09 03:32:36;;;;;;;1.85;0.85;;;17.10;99.90;;;;;;5014441;28;20424;-71
2023/08/09 03:35:02;;;;;;;2.35;0.90;;;16.80;99.90;;;;;;5014685;28;20034;-72
2023/08/09 03:37:28;;;;;;;1.92;1.13;;;16.60;99.90;;;;;;5032441;28;20029;-72
2023/08/09 03:39:54;;;;;;;4.97;1.88;;;16.40;99.90;;;;;;5013639;28;20116;-72
2023/08/09 03:42:20;;;;;;;2.17;1.02;;;16.40;99.90;;;;;;5013902;28;20497;-72
2023/08/09 03:44:46;;;;;;;2.35;1.20;;;16.40;99.90;;;;;;5032300;28;20037;-72
2023/08/09 03:47:11;;;;;;;2.67;1.17;;;16.40;99.90;;;;;;5014642;28;20029;-72
2023/08/09 03:49:37;;;;;;;4.40;1.38;;;16.30;99.90;;;;;;5032544;28;20032;-72
2023/08/09 03:52:03;;;;;;;2.45;1.13;;;16.30;99.90;;;;;;5032319;28;20022;-72
2023/08/09 03:54:29;;;;;;;3.17;1.27;;;16.30;99.90;;;;;;5031565;28;20029;-73
2023/08/09 03:56:55;;;;;;;2.15;1.00;;;16.20;99.90;;;;;;5025969;28;20026;-72
2023/08/09 03:59:23;;;;;;;1.13;0.85;;;16.20;99.90;;;;;;5004740;28;20044;-72
2023/08/09 04:01:48;;;;;;;1.85;1.25;;;16.20;99.90;;;;;;5004710;28;20105;-72
2023/08/09 04:04:14;;;;;;;2.30;1.33;;;16.20;99.90;;;;;;5019815;28;20176;-72
2023/08/09 04:06:40;;;;;;;2.90;1.38;;;16.10;99.90;;;;;;4996837;28;20398;-77
2023/08/09 04:09:07;;;;;;;1.95;1.42;;;16.00;99.90;;;;;;5032475;28;20405;-74
2023/08/09 04:11:33;;;;;;;2.28;1.73;;;16.00;99.90;;;;;;5050285;28;20055;-75
2023/08/09 04:13:59;;;;;;;2.28;1.23;;;16.00;99.90;;;;;;5030987;28;20485;-74
2023/08/09 04:16:25;;;;;;;3.60;1.42;;;16.00;99.90;;;;;;5012025;28;20034;-74
2023/08/09 04:18:51;;;;;;;2.20;1.35;;;15.90;99.90;;;;;;4997743;28;20048;-75
2023/08/09 04:21:17;;;;;;;4.68;1.25;;;15.90;99.90;;;;;;5031888;28;20079;-73
2023/08/09 04:23:43;;;;;;;3.30;1.73;;;15.90;99.90;;;;;;5012923;28;20065;-73
2023/08/09 04:26:09;;;;;;;3.10;1.13;;;15.90;99.90;;;;;;5035451;28;20474;-73
2023/08/09 04:28:34;;;;;;;2.22;1.40;;;15.90;99.90;;;;;;5027279;28;20113;-73
2023/08/09 04:31:02;;;;;;;2.95;1.48;;;15.80;99.90;;;;;;5030808;28;20036;-74
2023/08/09 04:33:28;;;;;;;4.38;1.00;;;15.90;99.90;;;;;;5030661;28;20574;-73
2023/08/09 04:35:54;;;;;;;2.05;1.35;;;15.90;99.90;;;;;;5027192;22;20032;-69
2023/08/09 04:38:20;;;;;;;2.20;1.30;;;15.90;99.90;;;;;;5037245;28;20045;-70
2023/08/09 04:40:45;;;;;;;3.50;2.10;;;15.90;99.90;;;;;;5011398;28;20484;-70
2023/08/09 04:43:13;;;;;;;7.57;2.75;;;15.90;99.90;;;;;;5009670;28;20033;-69
2023/08/09 04:45:40;;;;;;;2.95;1.27;;;15.90;99.90;;;;;;5026403;28;20034;-71
2023/08/09 04:48:06;;;;;;;2.90;1.65;;;15.90;99.90;;;;;;5009826;28;20042;-71
2023/08/09 04:50:32;;;;;;;5.72;1.98;;;15.90;99.90;;;;;;5008069;28;20026;-71
2023/08/09 04:52:59;;;;;;;2.08;1.35;;;16.00;99.90;;;;;;5018135;28;20034;-71
2023/08/09 04:55:25;;;;;;;6.45;1.77;;;16.00;99.90;;;;;;5031130;28;20108;-71
2023/08/09 04:57:51;;;;;;;6.85;1.92;;;16.00;99.90;;;;;;5031072;28;20125;-70
2023/08/09 05:00:17;;;;;;;3.08;1.20;;;16.00;99.90;;;;;;5030820;28;20392;-71
2023/08/09 05:02:44;;;;;;;3.03;1.25;;;16.00;99.90;;;;;;5003144;28;20128;-71
2023/08/09 05:05:11;;;;;;;3.63;1.45;;;16.10;99.90;;;;;;5008081;28;20040;-71
2023/08/09 05:07:38;;;;;;;1.88;1.10;;;16.10;99.90;;;;;;5028429;28;20037;-71
2023/08/09 05:10:06;;;;;;;2.75;1.38;;;16.20;99.90;;;;;;5011049;28;20034;-71
2023/08/09 05:12:32;;;;;;;2.55;1.33;;;16.30;99.90;;;;;;5025394;28;20033;-74
2023/08/09 05:14:58;;;;;;;6.00;1.50;;;16.30;99.90;;;;;;5012110;28;20425;-72
2023/08/09 05:17:24;;;;;;;3.65;1.30;;;16.40;99.90;;;;;;5011387;28;20036;-71
2023/08/09 05:19:50;;;;;;;6.07;1.17;;;16.50;99.90;;;;;;5009545;28;20034;-70
2023/08/09 05:22:16;;;;;;;2.47;1.23;;;16.60;99.90;;;;;;5010737;28;20076;-70
2023/08/09 05:24:42;;;;;;;3.40;1.30;;;16.60;99.90;;;;;;5010363;28;20030;-71
2023/08/09 05:27:07;;;;;;;2.30;1.40;;;16.60;99.90;;;;;;5010610;28;20087;-70
2023/08/09 05:29:33;;;;;;;2.60;1.30;;;16.60;99.90;;;;;;5010690;28;20117;-72
2023/08/09 05:31:59;;;;;;;1.95;1.02;;;16.70;99.90;;;;;;5012217;28;20055;-69
2023/08/09 05:34:25;;;;;;;1.60;1.00;;;16.70;99.90;;;;;;5021340;28;20021;-70
2023/08/09 05:36:51;;;;;;;2.55;1.10;;;16.70;99.90;;;;;;5021902;28;20095;-70
2023/08/09 05:39:17;;;;;;;2.20;1.13;;;16.70;99.90;;;;;;5014814;28;20029;-70
2023/08/09 05:41:42;;;;;;;6.28;1.88;;;16.80;99.90;;;;;;5010620;28;20072;-70
2023/08/09 05:44:08;;;;;;;1.52;1.00;;;16.90;99.90;;;;;;5010105;28;20038;-70
2023/08/09 05:46:34;;;;;;;2.10;1.23;;;17.00;99.90;;;;;;5009514;28;20136;-71
2023/08/09 05:49:00;;;;;;;1.83;0.98;;;17.00;99.90;;;;;;5020163;28;20053;-70
2023/08/09 05:51:25;;;;;;;2.28;1.15;;;17.10;99.90;;;;;;5017060;28;20064;-68
2023/08/09 05:53:52;;;;;;;1.85;1.00;;;17.20;99.90;;;;;;5025953;28;20033;-68
2023/08/09 05:56:18;;;;;;;6.13;1.00;;;17.30;99.90;;;;;;5029969;28;20444;-70
2023/08/09 05:58:43;;;;;;;2.05;1.05;;;17.30;99.90;;;;;;5028929;28;20041;-67
2023/08/09 06:01:10;;;;;;;2.90;1.13;;;17.40;99.90;;;;;;5025495;28;20657;-71
2023/08/09 06:03:39;;;;;;;2.05;0.98;;;17.50;99.90;;;;;;5013375;28;20088;-71
2023/08/09 06:06:07;;;;;;;2.63;1.17;;;17.50;99.90;;;;;;5014271;28;20026;-70
2023/08/09 06:08:34;;;;;;;3.67;1.33;;;17.60;99.90;;;;;;5014415;28;20030;-70
2023/08/09 06:11:00;;;;;;;2.30;1.20;;;17.60;99.90;;;;;;5014200;28;20030;-73
2023/08/09 06:13:25;;;;;;;4.05;1.13;;;17.60;99.90;;;;;;5028843;28;20423;-71
2023/08/09 06:15:51;;;;;;;2.40;0.93;;;17.70;99.90;;;;;;5014124;28;20029;-70
2023/08/09 06:18:17;;;;;;;2.13;1.00;;;17.80;99.90;;;;;;5014217;28;20034;-71
2023/08/09 06:20:43;;;;;;;2.25;1.15;;;17.80;99.90;;;;;;5014388;28;20040;-70
2023/08/09 06:23:10;;;;;;;3.15;1.20;;;17.80;99.90;;;;;;5028160;28;20389;-70
2023/08/09 06:25:37;;;;;;;4.65;0.95;;;17.80;99.90;;;;;;5013891;28;20068;-70
2023/08/09 06:28:04;;;;;;;2.60;0.68;;;17.90;99.90;;;;;;5014350;28;20248;-70
2023/08/09 06:30:30;;;;;;;2.03;0.98;;;17.90;99.90;;;;;;5010982;28;20053;-70
2023/08/09 06:32:56;;;;;;;4.65;0.77;;;18.00;99.90;;;;;;5023260;28;20540;-70
2023/08/09 06:35:21;;;;;;;2.28;0.80;;;18.20;99.90;;;;;;5025528;28;20045;-70
2023/08/09 06:37:48;;;;;;;1.85;0.57;;;18.20;99.90;;;;;;5013451;28;20030;-71
2023/08/09 06:40:15;;;;;;;0.60;0.30;;;18.30;99.90;;;;;;5019116;28;20162;-70
2023/08/09 06:42:42;;;;;;;3.28;1.08;;;18.30;99.90;;;;;;5036322;28;20379;-70
2023/08/09 06:45:09;;;;;;;2.20;0.60;;;18.30;99.90;;;;;;5030865;28;20048;-70
2023/08/09 06:47:35;;;;;;;3.22;0.63;;;18.40;99.90;;;;;;5033434;28;20030;-69
2023/08/09 06:50:02;;;;;;;1.98;0.70;;;18.40;99.90;;;;;;5033196;28;20034;-68
2023/08/09 06:52:28;;;;;;;0.80;0.50;;;18.40;99.90;;;;;;5032665;28;20029;-70
2023/08/09 06:54:54;;;;;;;2.83;0.80;;;18.40;99.90;;;;;;5033046;28;20032;-71
2023/08/09 06:57:20;;;;;;;2.30;1.00;;;18.40;99.90;;;;;;5033503;28;20100;-68
2023/08/09 06:59:47;;;;;;;5.47;1.00;;;18.50;99.90;;;;;;5031854;28;20389;-69
2023/08/09 07:02:13;;;;;;;1.98;0.85;;;18.60;99.90;;;;;;5033356;28;20025;-69
2023/08/09 07:04:38;;;;;;;0.65;0.50;;;18.60;99.90;;;;;;5031469;28;20037;-70
2023/08/09 07:07:05;;;;;;;1.60;0.50;;;18.80;99.90;;;;;;5032913;28;20075;-66
2023/08/09 07:09:31;;;;;;;1.13;0.57;;;18.80;99.90;;;;;;5016521;28;20057;-66
2023/08/09 07:11:57;;;;;;;1.80;0.80;;;18.90;99.90;;;;;;5013128;28;20125;-66
2023/08/09 07:14:23;;;;;;;1.85;0.63;;;18.90;99.90;;;;;;5012390;28;20030;-67
2023/08/09 07:16:49;;;;;;;4.45;0.50;;;19.00;99.90;;;;;;5011826;28;20037;-67
2023/08/09 07:19:15;;;;;;;5.60;0.90;;;19.10;99.90;;;;;;5013116;28;20088;-66
2023/08/09 07:21:41;;;;;;;1.60;0.75;;;19.20;99.90;;;;;;5033632;28;20036;-67
2023/08/09 07:24:06;;;;;;;2.15;1.08;;;19.20;99.90;;;;;;5021085;28;20084;-67
2023/08/09 07:26:32;;;;;;;2.80;1.27;;;19.20;99.90;;;;;;5023054;28;20034;-67
2023/08/09 07:28:59;;;;;;;3.65;1.83;;;19.20;99.90;;;;;;5015332;28;20109;-67
2023/08/09 07:31:25;;;;;;;5.78;2.35;;;19.20;99.90;;;;;;5012922;28;20034;-66
2023/08/09 07:33:51;;;;;;;4.43;1.75;;;19.30;99.90;;;;;;5011002;28;20034;-66
2023/08/09 07:36:17;;;;;;;4.95;1.80;;;19.20;99.90;;;;;;5012608;28;20088;-67
2023/08/09 07:38:43;;;;;;;3.13;1.02;;;19.40;99.90;;;;;;5011071;28;20059;-69
2023/08/09 07:41:10;;;;;;;3.13;1.30;;;19.20;99.90;;;;;;5011354;28;20474;-69
2023/08/09 07:43:37;;;;;;;1.10;0.68;;;19.20;99.90;;;;;;4994539;28;20065;-69
2023/08/09 07:46:05;;;;;;;4.43;1.20;;;19.10;99.90;;;;;;5011123;28;20231;-69
2023/08/09 07:48:33;;;;;;;2.75;0.98;;;19.20;99.90;;;;;;5012481;28;20030;-69
2023/08/09 07:50:59;;;;;;;4.55;0.80;;;19.20;99.90;;;;;;5002769;28;20055;-69
2023/08/09 07:53:24;;;;;;;2.47;1.08;;;19.30;99.90;;;;;;5022296;28;20481;-69
2023/08/09 07:55:50;;;;;;;1.20;0.70;;;19.20;99.90;;;;;;5013690;28;20105;-69
2023/08/09 07:58:16;;;;;;;1.23;0.50;;;19.10;99.90;;;;;;5018238;28;20445;-69
2023/08/09 08:00:42;;;;;;;3.28;0.60;;;19.10;99.90;;;;;;5026934;28;20030;-68
2023/08/09 08:03:09;;;;;;;2.35;0.93;;;19.10;99.90;;;;;;5031305;28;20025;-69
2023/08/09 08:05:36;;;;;;;1.00;0.60;;;19.20;99.90;;;;;;5032062;28;20025;-69
2023/08/09 08:08:02;;;;;;;1.30;0.70;;;19.20;99.90;;;;;;5030402;28;20037;-69
2023/08/09 08:10:28;;;;;;;0.90;0.68;;;19.30;99.90;;;;;;5031972;28;20025;-69
2023/08/09 08:12:54;;;;;;;3.35;0.80;;;19.40;99.90;;;;;;5029783;28;20168;-69
2023/08/09 08:15:22;;;;;;;1.45;0.82;;;19.30;99.90;;;;;;5031606;28;20117;-69
2023/08/09 08:17:51;;;;;;;4.10;0.70;;;19.30;99.90;;;;;;5030395;28;20033;-68
2023/08/09 08:20:19;;;;;;;1.80;0.80;;;19.40;99.90;;;;;;5016528;28;20026;-68
2023/08/09 08:22:48;;;;;;;1.25;0.60;;;19.50;99.90;;;;;;5009817;28;20112;-68
2023/08/09 08:25:16;;;;;;;1.48;0.65;;;19.50;99.90;;;;;;5009941;28;20042;-67
2023/08/09 08:27:45;;;;;;;3.15;1.05;;;19.50;99.90;;;;;;4998081;28;20084;-67
2023/08/09 08:30:13;;;;;;;1.02;0.63;;;19.60;99.90;;;;;;4991090;28;20030;-67
2023/08/09 08:32:39;;;;;;;1.30;0.50;;;19.70;99.90;;;;;;4990491;28;20109;-68
2023/08/09 08:35:10;;;;;;;1.90;0.82;;;19.80;99.90;;;;;;4991698;28;20033;-68
2023/08/09 08:37:36;;;;;;;;;;;19.90;99.90;;;;;;5010492;28;20049;-68
2023/08/09 08:40:07;;;;;;;7.95;0.85;;;20.00;99.90;;;;;;5030887;28;20257;-68
2023/08/09 08:42:33;;;;;;;1.33;0.80;;;20.00;99.90;;;;;;5030666;28;20025;-68
2023/08/09 08:45:00;;;;;;;2.50;0.98;;;20.10;99.90;;;;;;5031122;28;20037;-68
2023/08/09 08:47:26;;;;;;;1.13;0.57;;;20.10;99.90;;;;;;5029784;28;20029;-68
2023/08/09 08:49:57;;;;;;;0.90;0.60;;;20.30;99.90;;;;;;5030087;28;20454;-68
2023/08/09 08:52:27;;;;;;;2.72;0.80;;;20.20;99.90;;;;;;5029286;28;20044;-69
2023/08/09 08:54:53;;;;;;;0.82;0.50;;;20.20;99.90;;;;;;5029981;28;20033;-68
2023/08/09 08:57:20;;;;;;;2.20;0.98;;;20.30;99.90;;;;;;5029916;28;20104;-69
2023/08/09 08:59:47;;;;;;;1.77;0.80;;;20.50;99.90;;;;;;5031142;28;20025;-68
2023/08/09 09:02:13;;;;;;;4.50;0.75;;;20.50;99.90;;;;;;5029976;28;20043;-69
2023/08/09 09:04:39;;;;;;;0.95;0.60;;;20.60;99.90;;;;;;5030383;28;20116;-68
2023/08/09 09:07:05;;;;;;;1.67;0.70;;;20.70;99.90;;;;;;5030812;28;20473;-68
2023/08/09 09:09:31;;;;;;;2.38;0.60;;;20.50;99.90;;;;;;5029514;28;20037;-69
2023/08/09 09:12:01;;;;;;;1.00;0.70;;;20.30;99.90;;;;;;5029489;28;20033;-69
2023/08/09 09:14:27;;;;;;;1.30;0.68;;;20.30;99.90;;;;;;5030107;28;20412;-69
2023/08/09 09:16:55;;;;;;;0.50;0.35;;;20.20;99.90;;;;;;5030212;28;20037;-69
2023/08/09 09:19:20;;;;;;;1.13;0.60;;;20.40;99.90;;;;;;5029924;28;20124;-69
2023/08/09 09:21:46;;;;;;;0.73;0.50;;;20.50;99.90;;;;;;5030638;28;20105;-68
2023/08/09 09:24:12;;;;;;;1.83;0.85;;;20.60;99.90;;;;;;5028682;28;20492;-69
2023/08/09 09:26:38;;;;;;;0.75;0.43;;;20.60;99.90;;;;;;5030467;28;20036;-68
2023/08/09 09:29:09;;;;;;;1.30;0.70;;;20.40;99.90;;;;;;5029106;28;20405;-69
2023/08/09 09:31:38;;;;;;;1.35;0.88;;;20.50;99.90;;;;;;5029170;28;20031;-69
2023/08/09 09:34:09;;;;;;;1.55;0.55;;;20.40;99.90;;;;;;5029670;28;20440;-68
2023/08/09 09:36:50;;;;;;;0.93;0.52;;;20.40;99.90;;;;;;5028020;28;20037;-69
2023/08/09 09:39:15;;;;;;;1.60;0.77;;;20.30;99.90;;;;;;5030391;28;20076;-69
2023/08/09 09:41:49;;;;;;;2.28;0.68;;;20.30;99.90;;;;;;5028979;28;20065;-69
2023/08/09 09:44:20;;;;;;;1.55;0.52;;;20.40;99.90;;;;;;5028520;28;20030;-69
2023/08/09 09:46:45;;;;;;;3.25;0.82;;;20.40;99.90;;;;;;5029094;28;20037;-69
2023/08/09 09:49:14;;;;;;;4.13;0.73;;;20.60;99.90;;;;;;5030283;28;20036;-69
2023/08/09 09:51:42;;;;;;;1.52;0.57;;;20.60;99.90;;;;;;5028739;28;20033;-68
2023/08/09 09:54:08;;;;;;;2.38;0.70;;;20.60;99.90;;;;;;5028093;28;20363;-68
2023/08/09 09:56:35;;;;;;;0.75;0.50;;;20.60;99.90;;;;;;5028803;28;20044;-68
2023/08/09 09:59:03;;;;;;;3.30;0.50;;;20.50;99.90;;;;;;5030388;28;20699;-68
2023/08/09 10:01:33;;;;;;;1.67;0.73;;;20.20;99.90;;;;;;5030152;28;20030;-69
2023/08/09 10:04:06;;;;;;;2.43;0.80;;;20.00;99.90;;;;;;5028188;28;20104;-67
2023/08/09 10:06:39;;;;;;;2.90;0.98;;;19.80;99.90;;;;;;5028713;28;20766;-67
2023/08/09 10:09:08;;;;;;;3.47;1.40;;;19.50;99.90;;;;;;5028719;28;20038;-67
2023/08/09 10:11:34;;;;;;;3.50;0.90;;;19.40;99.90;;;;;;5009314;28;20030;-68
2023/08/09 10:14:05;;;;;;;5.35;0.82;;;19.50;99.90;;;;;;5008099;28;20072;-69
2023/08/09 10:16:32;;;;;;;;;;;19.60;99.90;;;;;;5009549;28;20029;-68
2023/08/09 10:19:23;;;;;;;6.30;2.85;;;19.80;99.90;;;;;;4979278;28;20406;-68
2023/08/09 10:21:52;;;;;;;3.25;1.60;;;19.80;99.90;;;;;;4989677;28;20502;-68
2023/08/09 10:24:18;;;;;;;2.88;0.60;;;19.70;99.90;;;;;;4988401;28;20025;-68
2023/08/09 10:26:49;;;;;;;1.20;0.63;;;20.00;99.90;;;;;;4989398;28;20053;-68
2023/08/09 10:29:23;;;;;;;1.52;0.75;;;20.10;99.90;;;;;;4989176;28;20038;-67
2023/08/09 10:32:02;;;;;;;1.70;0.68;;;20.50;99.90;;;;;;4989364;28;20479;-67
2023/08/09 10:34:42;;;;;;;2.03;0.90;;;20.60;99.90;;;;;;4972993;28;20027;-67
2023/08/09 10:37:11;;;;;;;1.75;0.60;;;20.80;99.90;;;;;;5028598;23;20498;-73
2023/08/09 10:39:37;;;;;;;1.70;0.82;;;20.80;99.90;;;;;;5011188;28;20037;-73
2023/08/09 10:42:10;;;;;;;1.00;0.65;;;21.20;99.90;;;;;;4990646;28;20471;-73
2023/08/09 10:44:45;;;;;;;1.95;0.68;;;21.50;99.90;;;;;;4990135;28;20034;-73
2023/08/09 10:47:26;;;;;;;2.72;1.10;;;21.60;99.90;;;;;;4981369;28;20073;-73
2023/08/09 10:49:52;;;;;;;2.97;0.75;;;21.10;99.90;;;;;;4973441;28;20487;-73
2023/08/09 10:52:30;;;;;;;6.13;1.15;;;20.80;99.90;;;;;;4974060;28;20041;-73
2023/08/09 10:55:30;;;;;;;2.08;1.27;;;21.10;99.90;;;;;;4974606;28;20035;-73
2023/08/09 10:57:58;;;;;;;1.05;0.68;;;21.80;99.90;;;;;;4974198;28;20039;-73
2023/08/09 11:00:28;;;;;;;1.83;0.85;;;21.90;99.90;;;;;;4973504;28;20443;-74
2023/08/09 11:02:56;;;;;;;1.85;0.77;;;22.20;99.90;;;;;;4972612;28;20027;-74
2023/08/09 11:05:23;;;;;;;5.38;0.90;;;22.00;99.90;;;;;;4974565;28;20101;-73
2023/08/09 11:07:59;;;;;;;2.63;1.02;;;22.00;99.90;;;;;;4959623;28;20115;-74
2023/08/09 11:10:38;;;;;;;1.02;0.68;;;22.40;99.90;;;;;;4992275;28;20023;-74
2023/08/09 11:13:13;;;;;;;2.42;0.90;;;22.60;99.90;;;;;;4993252;28;20482;-74
2023/08/09 11:15:46;;;;;;;2.10;0.63;;;22.00;99.90;;;;;;4993726;28;20493;-73
2023/08/09 11:18:12;;;;;;;1.60;0.50;;;22.00;99.90;;;;;;4976967;28;20483;-73
2023/08/09 11:20:39;;;;;;;5.20;1.02;;;22.10;99.90;;;;;;4993612;28;20066;-73
2023/08/09 11:23:05;;;;;;;1.10;0.88;;;22.00;99.90;;;;;;4975500;28;20113;-73
2023/08/09 11:25:33;;;;;;;0.57;0.45;;;22.10;99.90;;;;;;4992216;28;20114;-74
2023/08/09 11:28:04;;;;;;;1.38;0.50;;;22.10;99.90;;;;;;4992238;28;20041;-74
2023/08/09 11:30:33;;;;;;;1.02;0.60;;;22.00;99.90;;;;;;4992382;28;20030;-73
2023/08/09 11:33:05;;;;;;;0.45;0.30;;;22.20;99.90;;;;;;4991451;28;20030;-74
2023/08/09 11:35:44;;;;;;;2.70;0.70;;;22.30;99.90;;;;;;4992288;28;20081;-74
2023/08/09 11:38:14;;;;;;;1.17;0.60;;;22.20;99.90;;;;;;4993284;28;20040;-73
2023/08/09 11:40:50;;;;;;;1.97;0.67;;;22.00;99.90;;;;;;4992151;28;20427;-73
2023/08/09 11:43:18;;;;;;;1.75;0.90;;;21.80;99.90;;;;;;4992511;28;20581;-73
2023/08/09 11:45:55;;;;;;;1.70;0.70;;;21.90;99.90;;;;;;4992130;28;20042;-73
2023/08/09 11:48:38;;;;;;;4.68;0.60;;;21.90;99.90;;;;;;4991477;28;20061;-74
2023/08/09 11:51:10;;;;;;;1.52;0.80;;;21.70;99.90;;;;;;4991739;28;20030;-74
2023/08/09 11:53:38;;;;;;;1.05;0.75;;;21.60;99.90;;;;;;4991947;28;20556;-74
2023/08/09 11:56:10;;;;;;;1.58;0.88;;;21.20;99.90;;;;;;4991527;28;20063;-74
2023/08/09 11:58:38;;;;;;;1.67;0.70;;;20.90;99.90;;;;;;4991603;28;20030;-74
2023/08/09 12:01:28;;;;;;;1.20;0.70;;;20.70;99.90;;;;;;4992005;28;20113;-74
2023/08/09 12:03:59;;;;;;;2.25;0.40;;;20.50;99.90;;;;;;4990746;28;20089;-74
2023/08/09 12:06:41;;;;;;;0.98;0.55;;;20.50;99.90;;;;;;4991590;28;20354;-74
2023/08/09 12:09:35;;;;;;;1.83;0.73;;;20.50;99.90;;;;;;4991326;28;20034;-74
2023/08/09 12:12:16;;;;;;;0.90;0.52;;;20.60;99.90;;;;;;4987827;28;20491;-75
2023/08/09 12:15:00;;;;;;;0.67;0.50;;;20.80;99.90;;;;;;4971545;28;20065;-74
2023/08/09 12:17:29;;;;;;;1.55;0.82;;;20.90;99.90;;;;;;4971703;28;20031;-74
2023/08/09 12:19:58;;;;;;;0.98;0.52;;;21.10;99.90;;;;;;4973185;28;20609;-74
2023/08/09 12:22:25;;;;;;;1.65;1.10;;;21.30;99.90;;;;;;4972275;28;20046;-73
2023/08/09 12:24:52;;;;;;;2.95;0.98;;;21.50;99.90;;;;;;4973009;28;20754;-73
2023/08/09 12:27:19;;;;;;;0.82;0.50;;;21.80;99.90;;;;;;4966787;28;20031;-73
2023/08/09 12:29:46;;;;;;;3.08;0.80;;;22.30;99.90;;;;;;4952450;29;20027;-73
2023/08/09 12:32:12;;;;;;;2.17;1.17;;;22.60;99.90;;;;;;4952174;29;20113;-73
2023/08/09 12:34:38;;;;;;;0.90;0.50;;;23.20;99.90;;;;;;4952018;28;20035;-74
2023/08/09 12:37:05;;;;;;;0.55;0.20;;;23.50;99.90;;;;;;4972592;28;20031;-74
2023/08/09 12:39:31;;;;;;;0.50;0.50;;;23.10;99.90;;;;;;4987545;28;20096;-74
2023/08/09 12:41:57;;;;;;;1.33;0.47;;;22.80;99.90;;;;;;4990831;28;20443;-74
2023/08/09 12:44:24;;;;;;;1.02;0.70;;;22.50;99.90;;;;;;4991565;28;20044;-74
2023/08/09 12:46:50;;;;;;;1.27;0.47;;;22.20;99.90;;;;;;5007172;28;20030;-74
2023/08/09 12:49:15;;;;;;;0.77;0.45;;;21.90;99.90;;;;;;4992017;28;20035;-74
2023/08/09 12:51:41;;;;;;;1.67;0.50;;;21.80;99.90;;;;;;4992216;28;20023;-74